Time;durP1;ratioP1;P1;durP2;ratioP2;P2;SDS_P1;SDS_P2;PMS_P1;PMS_P2;Temp;Humidity;BMP_temperature;BMP_pressure;BME280_temperature;BME280_humidity;BME280_pressure;Samples;Min_cycle;Max_cycle;Signal;HPM_P1;HPM_P2
2022/11/13 00:00:58;;;;;;;18.13;9.52;;;;;;;;;;5134816;27;20925;-74
2022/11/13 00:03:29;;;;;;;20.95;10.23;;;;;;;;;;5137454;27;20504;-74
2022/11/13 00:06:00;;;;;;;20.38;10.43;;;;;;;;;;5135136;27;20058;-75
2022/11/13 00:08:27;;;;;;;21.40;9.80;;;;;;;;;;5134353;27;20051;-74
2022/11/13 00:11:06;;;;;;;19.00;9.93;;;;;;;;;;5129021;27;20147;-75
2022/11/13 00:13:34;;;;;;;19.98;9.52;;;;;;;;;;5120149;27;20059;-74
2022/11/13 00:16:03;;;;;;;22.60;11.85;;;;;;;;;;5138356;27;20063;-74
2022/11/13 00:18:30;;;;;;;20.40;10.30;;;;;;;;;;5120730;27;20054;-75
2022/11/13 00:20:58;;;;;;;16.40;9.15;;;;;;;;;;5141439;27;20063;-74
2022/11/13 00:23:25;;;;;;;13.63;8.25;;;;;;;;;;5136943;27;20048;-73
2022/11/13 00:25:53;;;;;;;15.00;8.20;;;;;;;;;;5124633;27;20768;-74
2022/11/13 00:28:20;;;;;;;17.85;8.77;;;;;;;;;;5142870;27;20549;-74
2022/11/13 00:30:50;;;;;;;15.50;9.05;;;;;;;;;;5139249;27;20075;-74
2022/11/13 00:33:20;;;;;;;14.35;9.02;;;;;;;;;;5124917;27;20564;-74
2022/11/13 00:36:26;;;;;;;13.05;9.00;;;;;;;;;;5143777;27;20066;-75
2022/11/13 00:38:54;;;;;;;17.27;9.07;;;;;;;;;;5145027;27;20055;-74
2022/11/13 00:41:22;;;;;;;18.42;9.82;;;;;;;;;;5141823;27;20093;-74
2022/11/13 00:43:50;;;;;;;17.55;9.68;;;;;;;;;;5147385;27;20077;-74
2022/11/13 00:46:23;;;;;;;25.20;11.63;;;;;;;;;;5139884;27;20055;-74
2022/11/13 00:48:50;;;;;;;20.08;11.23;;;;;;;;;;5124789;27;20097;-74
2022/11/13 00:51:18;;;;;;;20.33;12.57;;;;;;;;;;5149009;27;20043;-74
2022/11/13 00:53:46;;;;;;;19.63;10.85;;;;;;;;;;5146703;27;20210;-74
2022/11/13 00:56:13;;;;;;;21.95;11.75;;;;;;;;;;5140756;27;20039;-74
2022/11/13 00:58:40;;;;;;;24.48;13.32;;;;;;;;;;5143916;27;20096;-75
2022/11/13 01:01:10;;;;;;;22.60;12.27;;;;;;;;;;5143876;27;20075;-74
2022/11/13 01:03:41;;;;;;;21.27;11.70;;;;;;;;;;5148423;27;20047;-73
2022/11/13 01:06:19;;;;;;;23.75;12.30;;;;;;;;;;5147343;27;20055;-73
2022/11/13 01:08:47;;;;;;;23.77;12.43;;;;;;;;;;5140079;27;20051;-73
2022/11/13 01:11:16;;;;;;;28.70;12.43;;;;;;;;;;5150921;27;20052;-73
2022/11/13 01:13:44;;;;;;;23.67;12.25;;;;;;;;;;5145370;27;20126;-73
2022/11/13 01:16:13;;;;;;;26.10;12.82;;;;;;;;;;5143701;27;20051;-73
2022/11/13 01:18:41;;;;;;;27.42;12.40;;;;;;;;;;5144556;27;20573;-73
2022/11/13 01:21:13;;;;;;;19.90;11.13;;;;;;;;;;5124891;27;20160;-73
2022/11/13 01:23:40;;;;;;;19.42;10.70;;;;;;;;;;5104636;27;20135;-73
2022/11/13 01:26:15;;;;;;;16.70;9.70;;;;;;;;;;5115518;27;20051;-73
2022/11/13 01:28:44;;;;;;;19.80;10.80;;;;;;;;;;5121975;27;20048;-73
2022/11/13 01:31:13;;;;;;;22.75;10.80;;;;;;;;;;5119398;27;20048;-73
2022/11/13 01:33:40;;;;;;;22.00;11.52;;;;;;;;;;5103519;27;20052;-73
2022/11/13 01:36:08;;;;;;;27.55;13.70;;;;;;;;;;5118770;27;20052;-73
2022/11/13 01:38:35;;;;;;;26.63;12.52;;;;;;;;;;5102198;27;20055;-73
2022/11/13 01:41:04;;;;;;;20.88;12.77;;;;;;;;;;5107782;27;20091;-73
2022/11/13 01:43:33;;;;;;;23.02;11.73;;;;;;;;;;5129922;27;20119;-73
2022/11/13 01:46:18;;;;;;;19.35;11.63;;;;;;;;;;5118303;27;20126;-73
2022/11/13 01:49:04;;;;;;;22.58;12.13;;;;;;;;;;5126276;27;20135;-73
2022/11/13 01:51:36;;;;;;;23.75;12.25;;;;;;;;;;5108047;27;20489;-73
2022/11/13 01:54:06;;;;;;;24.83;13.93;;;;;;;;;;5120568;27;20494;-73
2022/11/13 01:56:33;;;;;;;23.63;13.07;;;;;;;;;;5124346;27;20097;-73
2022/11/13 01:59:08;;;;;;;27.35;14.75;;;;;;;;;;5118083;27;20047;-73
2022/11/13 02:01:36;;;;;;;26.23;14.02;;;;;;;;;;5121753;27;20048;-73
2022/11/13 02:04:03;;;;;;;29.75;14.75;;;;;;;;;;5124375;27;20175;-73
2022/11/13 02:06:34;;;;;;;23.90;13.23;;;;;;;;;;5122103;27;20126;-73
2022/11/13 02:09:02;;;;;;;30.70;14.77;;;;;;;;;;5126736;27;20044;-73
2022/11/13 02:11:29;;;;;;;25.85;13.95;;;;;;;;;;5128588;27;20140;-73
2022/11/13 02:13:56;;;;;;;23.67;13.52;;;;;;;;;;5113149;27;21453;-73
2022/11/13 02:16:24;;;;;;;33.33;14.63;;;;;;;;;;5120410;27;20048;-73
2022/11/13 02:18:51;;;;;;;22.63;12.73;;;;;;;;;;5121327;27;20059;-74
2022/11/13 02:21:19;;;;;;;25.23;13.65;;;;;;;;;;5121461;27;20938;-74
2022/11/13 02:24:09;;;;;;;26.65;15.30;;;;;;;;;;5134668;27;20068;-75
2022/11/13 02:26:37;;;;;;;28.42;15.82;;;;;;;;;;5111588;27;20047;-75
2022/11/13 02:29:04;;;;;;;29.95;15.43;;;;;;;;;;5136819;27;20058;-74
2022/11/13 02:31:32;;;;;;;22.88;13.20;;;;;;;;;;5148211;27;20545;-74
2022/11/13 02:34:01;;;;;;;22.35;12.80;;;;;;;;;;5145074;27;20492;-74
2022/11/13 02:36:29;;;;;;;26.05;13.32;;;;;;;;;;5147588;27;20039;-72
2022/11/13 02:38:59;;;;;;;22.17;13.57;;;;;;;;;;5128595;27;20047;-72
2022/11/13 02:41:26;;;;;;;23.30;13.45;;;;;;;;;;5143368;27;20777;-72
2022/11/13 02:43:53;;;;;;;26.60;14.13;;;;;;;;;;5124668;27;20047;-72
2022/11/13 02:46:23;;;;;;;26.38;15.35;;;;;;;;;;5136769;27;20055;-72
2022/11/13 02:48:51;;;;;;;24.90;14.77;;;;;;;;;;5116666;27;20055;-72
2022/11/13 02:51:18;;;;;;;27.88;15.10;;;;;;;;;;5136222;27;20047;-72
2022/11/13 02:53:45;;;;;;;24.20;14.05;;;;;;;;;;5138079;27;20054;-72
2022/11/13 02:56:13;;;;;;;27.80;14.77;;;;;;;;;;5134696;27;20121;-71
2022/11/13 02:58:40;;;;;;;21.40;13.45;;;;;;;;;;5143214;27;20047;-72
2022/11/13 03:01:07;;;;;;;27.75;14.75;;;;;;;;;;5147288;27;20042;-71
2022/11/13 03:03:38;;;;;;;27.50;14.90;;;;;;;;;;5126858;27;20052;-72
2022/11/13 03:06:25;;;;;;;29.60;13.77;;;;;;;;;;5124488;27;20116;-72
2022/11/13 03:08:52;;;;;;;27.35;13.45;;;;;;;;;;5136381;27;20053;-72
2022/11/13 03:11:19;;;;;;;24.88;13.93;;;;;;;;;;5145945;27;20047;-72
2022/11/13 03:13:46;;;;;;;26.55;14.23;;;;;;;;;;5145458;27;20047;-72
2022/11/13 03:16:16;;;;;;;25.80;13.52;;;;;;;;;;5126995;27;20048;-72
2022/11/13 03:18:44;;;;;;;24.33;12.82;;;;;;;;;;5134229;27;20140;-72
2022/11/13 03:21:13;;;;;;;21.42;12.13;;;;;;;;;;5140656;27;20507;-72
2022/11/13 03:23:40;;;;;;;21.83;12.70;;;;;;;;;;5136699;27;20058;-71
2022/11/13 03:26:10;;;;;;;25.30;11.82;;;;;;;;;;5129812;27;20101;-71
2022/11/13 03:28:37;;;;;;;24.98;12.35;;;;;;;;;;5140937;27;20043;-71
2022/11/13 03:31:04;;;;;;;22.33;12.45;;;;;;;;;;5134801;27;20043;-72
2022/11/13 03:33:32;;;;;;;19.27;11.75;;;;;;;;;;5133692;27;20048;-72
2022/11/13 03:35:59;;;;;;;21.33;12.05;;;;;;;;;;5115532;27;20047;-71
2022/11/13 03:38:27;;;;;;;20.63;12.05;;;;;;;;;;5132053;27;20135;-71
2022/11/13 03:40:54;;;;;;;20.63;12.00;;;;;;;;;;5135722;27;20481;-72
2022/11/13 03:43:23;;;;;;;17.92;10.35;;;;;;;;;;5112638;27;20130;-72
2022/11/13 03:45:51;;;;;;;22.75;12.15;;;;;;;;;;5130608;27;20051;-71
2022/11/13 03:48:20;;;;;;;24.65;12.73;;;;;;;;;;5141698;27;21280;-74
2022/11/13 03:50:49;;;;;;;23.85;12.27;;;;;;;;;;5118726;27;20051;-74
2022/11/13 03:53:18;;;;;;;20.63;11.73;;;;;;;;;;5137875;27;20825;-74
2022/11/13 03:55:46;;;;;;;23.20;11.65;;;;;;;;;;5142252;27;20115;-74
2022/11/13 03:58:13;;;;;;;20.33;11.45;;;;;;;;;;5135976;27;20060;-74
2022/11/13 04:00:41;;;;;;;25.05;10.48;;;;;;;;;;5139467;27;20051;-74
2022/11/13 04:03:09;;;;;;;22.00;11.20;;;;;;;;;;5139551;27;20080;-74
2022/11/13 04:05:36;;;;;;;18.02;10.63;;;;;;;;;;5133712;27;20059;-74
2022/11/13 04:08:04;;;;;;;20.05;11.40;;;;;;;;;;5133889;27;20043;-74
2022/11/13 04:10:31;;;;;;;22.90;11.95;;;;;;;;;;5136279;27;20048;-74
2022/11/13 04:12:59;;;;;;;20.67;11.13;;;;;;;;;;5144841;27;20047;-74
2022/11/13 04:15:26;;;;;;;21.20;11.13;;;;;;;;;;5128229;27;20059;-74
2022/11/13 04:17:53;;;;;;;19.08;10.73;;;;;;;;;;5143316;27;20154;-73
2022/11/13 04:20:21;;;;;;;21.20;11.50;;;;;;;;;;5143500;27;20055;-73
2022/11/13 04:22:49;;;;;;;24.50;10.65;;;;;;;;;;5139053;27;20047;-73
2022/11/13 04:25:16;;;;;;;17.52;10.95;;;;;;;;;;5124655;27;20153;-74
2022/11/13 04:27:44;;;;;;;23.27;10.68;;;;;;;;;;5144145;27;20039;-74
2022/11/13 04:30:11;;;;;;;20.50;11.52;;;;;;;;;;5138347;27;20036;-73
2022/11/13 04:32:38;;;;;;;19.92;11.20;;;;;;;;;;5142181;27;20047;-74
2022/11/13 04:35:06;;;;;;;24.27;10.52;;;;;;;;;;5140799;27;20051;-73
2022/11/13 04:37:33;;;;;;;22.38;9.65;;;;;;;;;;5131870;27;20079;-74
2022/11/13 04:40:01;;;;;;;19.33;10.60;;;;;;;;;;5137152;27;20062;-73
2022/11/13 04:45:15;;;;;;;16.15;9.93;;;;;;;;;;5145264;27;20047;-74
2022/11/13 04:47:43;;;;;;;15.50;8.88;;;;;;;;;;5141146;27;20134;-74
2022/11/13 04:50:10;;;;;;;18.38;10.77;;;;;;;;;;5142391;27;20100;-74
2022/11/13 04:52:38;;;;;;;25.45;10.75;;;;;;;;;;5146376;27;20093;-74
2022/11/13 04:55:09;;;;;;;20.50;11.02;;;;;;;;;;5125757;27;20158;-73
2022/11/13 04:57:36;;;;;;;24.77;10.98;;;;;;;;;;5142389;27;20058;-73
2022/11/13 05:00:08;;;;;;;27.25;11.50;;;;;;;;;;5134541;27;20076;-74
2022/11/13 05:02:36;;;;;;;19.98;11.02;;;;;;;;;;5123641;27;20051;-73
2022/11/13 05:05:03;;;;;;;18.60;10.68;;;;;;;;;;5136707;27;20146;-73
2022/11/13 05:07:31;;;;;;;17.92;10.27;;;;;;;;;;5140145;27;20142;-73
2022/11/13 05:09:59;;;;;;;22.55;11.85;;;;;;;;;;5136026;27;20401;-74
2022/11/13 05:12:26;;;;;;;22.83;11.00;;;;;;;;;;5142498;27;20047;-73
2022/11/13 05:14:53;;;;;;;22.20;11.32;;;;;;;;;;5138854;27;20043;-73
2022/11/13 05:17:22;;;;;;;19.30;9.23;;;;;;;;;;5140609;27;20047;-73
2022/11/13 05:19:57;;;;;;;22.08;10.45;;;;;;;;;;5147030;27;20059;-73
2022/11/13 05:22:25;;;;;;;16.55;9.85;;;;;;;;;;5139443;27;20059;-73
2022/11/13 05:24:52;;;;;;;15.77;8.77;;;;;;;;;;5119236;27;20535;-73
2022/11/13 05:27:19;;;;;;;20.13;10.60;;;;;;;;;;5140524;27;20051;-74
2022/11/13 05:29:51;;;;;;;16.05;8.98;;;;;;;;;;5141712;27;20158;-73
2022/11/13 05:32:19;;;;;;;17.08;9.68;;;;;;;;;;5143659;27;20048;-73
2022/11/13 05:34:46;;;;;;;16.17;8.95;;;;;;;;;;5133259;27;20116;-73
2022/11/13 05:37:13;;;;;;;19.52;9.10;;;;;;;;;;5144900;27;20078;-73
2022/11/13 05:39:40;;;;;;;17.25;9.18;;;;;;;;;;5139294;27;20051;-73
2022/11/13 05:42:07;;;;;;;13.75;9.10;;;;;;;;;;5138984;27;20066;-73
2022/11/13 05:44:35;;;;;;;18.52;9.48;;;;;;;;;;5120275;27;20051;-74
2022/11/13 05:47:02;;;;;;;21.35;10.05;;;;;;;;;;5128833;27;20072;-74
2022/11/13 05:49:30;;;;;;;14.60;9.10;;;;;;;;;;5141180;27;20050;-74
2022/11/13 05:51:57;;;;;;;19.30;10.50;;;;;;;;;;5121136;27;20081;-73
2022/11/13 05:54:24;;;;;;;17.85;9.90;;;;;;;;;;5140933;27;20044;-73
2022/11/13 05:56:52;;;;;;;16.15;9.60;;;;;;;;;;5136394;27;20053;-74
2022/11/13 05:59:19;;;;;;;21.95;10.30;;;;;;;;;;5145220;27;20165;-73
2022/11/13 06:01:49;;;;;;;19.10;11.23;;;;;;;;;;5142508;27;20058;-73
2022/11/13 06:04:16;;;;;;;18.55;9.80;;;;;;;;;;5121697;27;20531;-74
2022/11/13 06:06:43;;;;;;;21.35;9.63;;;;;;;;;;5136524;27;20051;-73
2022/11/13 06:09:13;;;;;;;18.30;10.82;;;;;;;;;;5143854;27;20047;-74
2022/11/13 06:11:40;;;;;;;20.52;10.30;;;;;;;;;;5149080;27;20059;-74
2022/11/13 06:14:08;;;;;;;15.52;9.48;;;;;;;;;;5139020;27;20051;-74
2022/11/13 06:16:36;;;;;;;21.35;11.00;;;;;;;;;;5146236;27;20075;-74
2022/11/13 06:19:05;;;;;;;18.80;9.88;;;;;;;;;;5142721;27;20043;-74
2022/11/13 06:21:33;;;;;;;19.55;9.70;;;;;;;;;;5149584;27;20055;-74
2022/11/13 06:24:01;;;;;;;17.73;10.13;;;;;;;;;;5127561;27;20052;-74
2022/11/13 06:26:30;;;;;;;21.75;10.55;;;;;;;;;;5136306;27;20046;-73
2022/11/13 06:28:58;;;;;;;23.05;10.57;;;;;;;;;;5146919;27;20047;-74
2022/11/13 06:31:27;;;;;;;19.33;10.50;;;;;;;;;;5127720;27;20505;-74
2022/11/13 06:33:54;;;;;;;20.90;10.85;;;;;;;;;;5142794;27;20598;-74
2022/11/13 06:36:24;;;;;;;21.92;11.20;;;;;;;;;;5129898;27;20055;-75
2022/11/13 06:38:51;;;;;;;20.20;10.52;;;;;;;;;;5137556;27;20047;-74
2022/11/13 06:41:24;;;;;;;20.17;11.95;;;;;;;;;;5120587;27;20139;-74
2022/11/13 06:43:52;;;;;;;20.00;11.18;;;;;;;;;;5129107;27;20430;-74
2022/11/13 06:46:24;;;;;;;21.13;10.88;;;;;;;;;;5145403;27;20050;-74
2022/11/13 06:48:52;;;;;;;21.38;11.30;;;;;;;;;;5143820;27;20073;-74
2022/11/13 06:51:20;;;;;;;24.45;10.85;;;;;;;;;;5139746;27;20082;-74
2022/11/13 06:53:51;;;;;;;19.38;10.05;;;;;;;;;;5126996;27;20123;-74
2022/11/13 06:56:18;;;;;;;22.17;10.75;;;;;;;;;;5143746;27;20047;-73
2022/11/13 06:58:46;;;;;;;19.27;10.13;;;;;;;;;;5137600;27;20039;-74
2022/11/13 07:01:15;;;;;;;18.10;10.30;;;;;;;;;;5141742;27;20075;-74
2022/11/13 07:03:42;;;;;;;19.25;10.30;;;;;;;;;;5119833;27;20051;-74
2022/11/13 07:06:13;;;;;;;24.02;10.55;;;;;;;;;;5142300;27;20051;-73
2022/11/13 07:08:41;;;;;;;19.98;10.38;;;;;;;;;;5139889;27;20133;-73
2022/11/13 07:11:10;;;;;;;18.15;10.40;;;;;;;;;;5146685;27;20519;-74
2022/11/13 07:13:38;;;;;;;23.67;10.95;;;;;;;;;;5143091;27;20140;-73
2022/11/13 07:16:06;;;;;;;28.90;11.43;;;;;;;;;;5139789;27;20163;-74
2022/11/13 07:18:49;;;;;;;20.73;11.45;;;;;;;;;;5140848;27;20105;-73
2022/11/13 07:21:16;;;;;;;23.42;12.73;;;;;;;;;;5139057;27;20051;-73
2022/11/13 07:23:43;;;;;;;26.67;13.18;;;;;;;;;;5142465;27;20040;-74
2022/11/13 07:26:11;;;;;;;30.90;14.07;;;;;;;;;;5125815;27;20059;-74
2022/11/13 07:28:39;;;;;;;22.30;12.60;;;;;;;;;;5147386;27;20063;-74
2022/11/13 07:31:06;;;;;;;26.70;12.65;;;;;;;;;;5140562;27;20093;-74
2022/11/13 07:33:34;;;;;;;24.13;12.43;;;;;;;;;;5146649;27;20591;-74
2022/11/13 07:36:02;;;;;;;22.63;13.50;;;;;;;;;;5138782;27;20044;-74
2022/11/13 07:38:29;;;;;;;17.65;10.20;;;;;;;;;;5147653;27;20055;-74
2022/11/13 07:40:58;;;;;;;20.67;10.40;;;;;;;;;;5128952;27;20423;-74
2022/11/13 07:43:26;;;;;;;14.73;9.38;;;;;;;;;;5144851;27;20158;-73
2022/11/13 07:45:54;;;;;;;20.42;9.55;;;;;;;;;;5125321;27;20055;-74
2022/11/13 07:48:21;;;;;;;16.38;9.40;;;;;;;;;;5140289;27;20055;-74
2022/11/13 07:50:49;;;;;;;17.65;10.05;;;;;;;;;;5123587;27;20047;-74
2022/11/13 07:53:17;;;;;;;25.98;11.20;;;;;;;;;;5135861;27;20101;-74
2022/11/13 07:55:45;;;;;;;16.90;10.80;;;;;;;;;;5143932;27;20561;-74
2022/11/13 07:58:12;;;;;;;20.73;11.52;;;;;;;;;;5123646;27;20043;-74
2022/11/13 08:00:39;;;;;;;17.90;10.38;;;;;;;;;;5133305;27;20047;-74
2022/11/13 08:03:07;;;;;;;18.67;11.05;;;;;;;;;;5135981;27;20048;-74
2022/11/13 08:05:35;;;;;;;20.80;11.10;;;;;;;;;;5137664;27;20043;-71
2022/11/13 08:08:02;;;;;;;19.90;10.65;;;;;;;;;;5144907;27;20043;-72
2022/11/13 08:10:30;;;;;;;20.75;10.38;;;;;;;;;;5145349;27;20837;-72
2022/11/13 08:12:58;;;;;;;17.23;9.30;;;;;;;;;;5125441;27;20096;-74
2022/11/13 08:15:26;;;;;;;17.90;10.32;;;;;;;;;;5136305;27;20428;-72
2022/11/13 08:17:54;;;;;;;19.92;10.23;;;;;;;;;;5140159;27;20039;-72
2022/11/13 08:20:23;;;;;;;18.15;9.73;;;;;;;;;;5126163;27;20073;-72
2022/11/13 08:22:50;;;;;;;24.73;11.68;;;;;;;;;;5128053;27;20051;-72
2022/11/13 08:25:18;;;;;;;19.90;10.60;;;;;;;;;;5136014;27;20150;-71
2022/11/13 08:27:45;;;;;;;22.05;11.93;;;;;;;;;;5145374;27;20077;-72
2022/11/13 08:30:13;;;;;;;23.10;11.73;;;;;;;;;;5138541;27;20052;-72
2022/11/13 08:32:41;;;;;;;17.48;10.07;;;;;;;;;;5121037;27;20054;-71
2022/11/13 08:35:09;;;;;;;19.35;11.40;;;;;;;;;;5145509;27;20039;-72
2022/11/13 08:37:36;;;;;;;21.95;11.55;;;;;;;;;;5125839;27;20058;-72
2022/11/13 08:40:03;;;;;;;22.80;11.98;;;;;;;;;;5142661;27;20056;-72
2022/11/13 08:42:31;;;;;;;18.35;12.00;;;;;;;;;;5144106;27;20051;-74
2022/11/13 08:44:59;;;;;;;23.60;12.20;;;;;;;;;;5142829;27;20039;-75
2022/11/13 08:47:27;;;;;;;20.33;12.20;;;;;;;;;;5141122;27;20108;-73
2022/11/13 08:49:56;;;;;;;19.23;12.80;;;;;;;;;;5126973;27;20039;-72
2022/11/13 08:52:24;;;;;;;20.10;13.00;;;;;;;;;;5150311;27;20051;-75
2022/11/13 08:54:52;;;;;;;18.67;11.43;;;;;;;;;;5145992;27;20047;-73
2022/11/13 08:57:19;;;;;;;18.35;11.70;;;;;;;;;;5145621;27;20158;-74
2022/11/13 08:59:47;;;;;;;26.67;12.77;;;;;;;;;;5143843;27;20503;-74
2022/11/13 09:02:15;;;;;;;22.50;12.13;;;;;;;;;;5142016;27;20054;-75
2022/11/13 09:04:42;;;;;;;23.45;11.75;;;;;;;;;;5145038;27;20046;-75
2022/11/13 09:07:10;;;;;;;19.60;11.43;;;;;;;;;;5146548;27;20076;-75
2022/11/13 09:09:37;;;;;;;17.00;10.70;;;;;;;;;;5148658;27;20048;-75
2022/11/13 09:12:05;;;;;;;18.27;10.80;;;;;;;;;;5126423;27;20047;-76
2022/11/13 09:14:32;;;;;;;22.48;11.95;;;;;;;;;;5146966;27;20048;-73
2022/11/13 09:17:00;;;;;;;18.13;11.00;;;;;;;;;;5147582;27;20047;-72
2022/11/13 09:19:27;;;;;;;19.88;10.48;;;;;;;;;;5144994;27;20055;-73
2022/11/13 09:21:54;;;;;;;16.92;9.27;;;;;;;;;;5143623;27;20532;-73
2022/11/13 09:24:22;;;;;;;16.58;9.18;;;;;;;;;;5123361;27;22315;-75
2022/11/13 09:26:49;;;;;;;15.30;8.52;;;;;;;;;;5143903;27;21018;-73
2022/11/13 09:29:17;;;;;;;14.38;9.38;;;;;;;;;;5138823;27;20047;-73
2022/11/13 09:31:45;;;;;;;13.45;8.82;;;;;;;;;;5141541;27;20058;-73
2022/11/13 09:34:12;;;;;;;18.00;9.10;;;;;;;;;;5125788;27;20473;-72
2022/11/13 09:36:39;;;;;;;13.13;8.77;;;;;;;;;;5133882;27;20073;-73
2022/11/13 09:39:06;;;;;;;15.45;8.90;;;;;;;;;;5146365;27;20051;-72
2022/11/13 09:41:37;;;;;;;14.57;8.23;;;;;;;;;;5120825;27;20044;-72
2022/11/13 09:44:13;;;;;;;15.95;8.43;;;;;;;;;;5126543;27;20097;-73
2022/11/13 09:46:50;;;;;;;13.55;8.30;;;;;;;;;;5146346;27;20051;-73
2022/11/13 09:49:26;;;;;;;14.45;8.48;;;;;;;;;;5125245;27;20055;-73
2022/11/13 09:51:55;;;;;;;16.10;7.57;;;;;;;;;;5138644;27;20047;-73
2022/11/13 09:54:23;;;;;;;16.05;8.15;;;;;;;;;;5143502;27;21201;-73
2022/11/13 09:56:56;;;;;;;13.98;7.68;;;;;;;;;;5148080;27;20047;-72
2022/11/13 09:59:31;;;;;;;13.75;7.50;;;;;;;;;;5139363;27;20047;-73
2022/11/13 10:02:13;;;;;;;12.52;7.55;;;;;;;;;;5135482;27;20044;-73
2022/11/13 10:04:57;;;;;;;12.35;7.82;;;;;;;;;;5140942;27;20120;-72
2022/11/13 10:07:44;;;;;;;18.38;7.80;;;;;;;;;;5132130;27;20048;-73
2022/11/13 10:10:30;;;;;;;13.55;8.57;;;;;;;;;;5118650;27;20865;-72
2022/11/13 10:12:59;;;;;;;14.02;8.57;;;;;;;;;;5130346;27;20087;-72
2022/11/13 10:15:27;;;;;;;13.13;7.30;;;;;;;;;;5138264;27;20105;-73
2022/11/13 10:18:05;;;;;;;11.35;6.95;;;;;;;;;;5138805;27;20525;-73
2022/11/13 10:20:39;;;;;;;12.35;6.65;;;;;;;;;;5138340;27;20055;-72
2022/11/13 10:23:09;;;;;;;12.77;6.85;;;;;;;;;;5133935;27;20043;-73
2022/11/13 10:25:37;;;;;;;11.25;7.07;;;;;;;;;;5134567;27;20058;-73
2022/11/13 10:28:10;;;;;;;11.52;7.40;;;;;;;;;;5133022;27;20047;-73
2022/11/13 10:30:58;;;;;;;18.13;7.15;;;;;;;;;;5129967;27;20043;-73
2022/11/13 10:33:25;;;;;;;12.13;7.25;;;;;;;;;;5136774;27;20043;-73
2022/11/13 10:35:53;;;;;;;11.15;7.22;;;;;;;;;;5129567;27;20622;-72
2022/11/13 10:38:26;;;;;;;10.68;7.05;;;;;;;;;;5128661;27;20130;-73
2022/11/13 10:41:05;;;;;;;12.10;7.18;;;;;;;;;;5136038;27;20100;-73
2022/11/13 10:43:32;;;;;;;13.82;7.40;;;;;;;;;;5137273;27;20044;-73
2022/11/13 10:46:03;;;;;;;14.20;7.45;;;;;;;;;;5133942;27;20044;-73
2022/11/13 10:48:35;;;;;;;19.05;7.60;;;;;;;;;;5121749;27;20051;-73
2022/11/13 10:51:04;;;;;;;11.15;7.30;;;;;;;;;;5138988;27;20050;-73
2022/11/13 10:53:39;;;;;;;16.05;6.55;;;;;;;;;;5137385;27;20059;-72
2022/11/13 10:56:24;;;;;;;18.52;6.28;;;;;;;;;;5132123;27;20047;-72
2022/11/13 10:59:03;;;;;;;10.77;5.70;;;;;;;;;;5131085;27;20050;-72
2022/11/13 11:01:30;;;;;;;12.38;6.03;;;;;;;;;;5129130;27;20050;-73
2022/11/13 11:03:58;;;;;;;10.85;6.20;;;;;;;;;;5131610;27;20079;-73
2022/11/13 11:06:36;;;;;;;12.45;6.10;;;;;;;;;;5130108;27;20059;-72
2022/11/13 11:09:26;;;;;;;13.00;6.63;;;;;;;;;;5134543;27;20134;-73
2022/11/13 11:12:15;;;;;;;13.35;5.88;;;;;;;;;;5141295;27;20062;-72
2022/11/13 11:14:57;;;;;;;10.00;5.85;;;;;;;;;;5127233;27;20051;-73
2022/11/13 11:17:40;;;;;;;9.90;6.10;;;;;;;;;;5132927;27;20043;-73
2022/11/13 11:20:22;;;;;;;10.98;5.45;;;;;;;;;;5131844;27;20047;-73
2022/11/13 11:22:53;;;;;;;9.20;5.30;;;;;;;;;;5117693;27;20174;-73
2022/11/13 11:25:29;;;;;;;11.35;5.20;;;;;;;;;;5135949;27;20058;-73
2022/11/13 11:28:01;;;;;;;12.07;5.50;;;;;;;;;;5133253;27;20047;-73
2022/11/13 11:30:29;;;;;;;;;;;;;;;;;;5137270;27;20108;-73
2022/11/13 11:33:04;;;;;;;9.27;5.47;;;;;;;;;;5132724;27;42412;-73
2022/11/13 11:35:31;;;;;;;8.95;5.60;;;;;;;;;;5136774;27;20079;-73
2022/11/13 11:38:09;;;;;;;8.05;5.00;;;;;;;;;;5128143;27;20047;-73
2022/11/13 11:40:45;;;;;;;9.35;5.13;;;;;;;;;;5132108;27;20136;-73
2022/11/13 11:43:21;;;;;;;9.63;5.30;;;;;;;;;;5117713;27;20050;-73
2022/11/13 11:45:48;;;;;;;8.07;5.20;;;;;;;;;;5134530;27;20048;-72
2022/11/13 11:48:40;;;;;;;9.82;4.82;;;;;;;;;;5130682;27;20615;-73
2022/11/13 11:51:07;;;;;;;8.77;5.47;;;;;;;;;;5132815;27;20043;-73
2022/11/13 11:53:46;;;;;;;8.63;5.25;;;;;;;;;;5137267;27;20050;-73
2022/11/13 11:56:16;;;;;;;10.23;5.22;;;;;;;;;;5135106;27;20051;-73
2022/11/13 11:59:04;;;;;;;8.73;5.32;;;;;;;;;;5134373;27;20050;-73
2022/11/13 12:01:40;;;;;;;12.63;5.70;;;;;;;;;;5141910;27;20048;-73
2022/11/13 12:04:16;;;;;;;10.07;5.30;;;;;;;;;;5136267;27;20055;-73
2022/11/13 12:06:54;;;;;;;10.07;5.78;;;;;;;;;;5128661;27;20845;-74
2022/11/13 12:09:24;;;;;;;14.38;6.00;;;;;;;;;;5121643;27;20047;-73
2022/11/13 12:11:54;;;;;;;10.20;5.55;;;;;;;;;;5135167;27;20491;-73
2022/11/13 12:14:27;;;;;;;10.43;5.18;;;;;;;;;;5133455;27;20054;-73
2022/11/13 12:17:07;;;;;;;11.02;6.10;;;;;;;;;;5115959;27;20070;-73
2022/11/13 12:19:58;;;;;;;9.50;5.50;;;;;;;;;;5129323;27;20055;-74
2022/11/13 12:22:35;;;;;;;10.52;5.90;;;;;;;;;;5133549;27;20047;-73
2022/11/13 12:25:19;;;;;;;11.20;5.78;;;;;;;;;;5118601;27;20051;-73
2022/11/13 12:28:10;;;;;;;8.23;5.50;;;;;;;;;;5135362;27;20101;-73
2022/11/13 12:30:53;;;;;;;11.52;5.45;;;;;;;;;;5133342;27;20053;-74
2022/11/13 12:33:20;;;;;;;9.80;4.90;;;;;;;;;;5133973;27;20047;-73
2022/11/13 12:35:52;;;;;;;13.32;5.00;;;;;;;;;;5128338;27;20054;-74
2022/11/13 12:38:22;;;;;;;7.70;4.72;;;;;;;;;;5138683;27;20050;-73
2022/11/13 12:40:54;;;;;;;10.17;4.00;;;;;;;;;;5142817;27;20058;-73
2022/11/13 12:43:39;;;;;;;6.38;3.72;;;;;;;;;;5138037;27;21012;-73
2022/11/13 12:46:08;;;;;;;7.50;3.60;;;;;;;;;;5138675;27;20134;-74
2022/11/13 12:48:43;;;;;;;7.38;3.67;;;;;;;;;;5139364;27;20142;-73
2022/11/13 12:51:17;;;;;;;6.70;3.30;;;;;;;;;;5140440;27;20082;-74
2022/11/13 12:53:45;;;;;;;6.57;3.55;;;;;;;;;;5144612;27;20044;-74
2022/11/13 12:56:25;;;;;;;8.02;4.20;;;;;;;;;;5141343;27;20169;-73
2022/11/13 12:59:00;;;;;;;6.78;3.78;;;;;;;;;;5125509;27;20113;-73
2022/11/13 13:01:51;;;;;;;7.45;4.10;;;;;;;;;;5140198;27;20055;-73
2022/11/13 13:04:33;;;;;;;6.03;3.53;;;;;;;;;;5135396;27;20483;-74
2022/11/13 13:07:21;;;;;;;5.60;3.30;;;;;;;;;;5134845;27;20076;-74
2022/11/13 13:10:12;;;;;;;10.23;3.45;;;;;;;;;;5118404;27;20078;-73
2022/11/13 13:12:58;;;;;;;7.05;3.10;;;;;;;;;;5138816;27;20048;-74
2022/11/13 13:15:32;;;;;;;6.22;3.28;;;;;;;;;;5138286;27;20044;-73
2022/11/13 13:18:12;;;;;;;5.97;3.10;;;;;;;;;;5126393;27;20059;-74
2022/11/13 13:20:40;;;;;;;6.10;3.15;;;;;;;;;;5133267;27;20102;-74
2022/11/13 13:23:11;;;;;;;6.95;3.13;;;;;;;;;;5149748;27;20050;-73
2022/11/13 13:25:39;;;;;;;5.32;3.22;;;;;;;;;;5135013;27;20420;-74
2022/11/13 13:28:09;;;;;;;6.95;3.53;;;;;;;;;;5150631;27;20066;-73
2022/11/13 13:30:47;;;;;;;6.45;3.60;;;;;;;;;;5133344;27;20051;-73
2022/11/13 13:33:23;;;;;;;8.30;3.20;;;;;;;;;;5134114;27;20401;-73
2022/11/13 13:35:57;;;;;;;6.20;3.10;;;;;;;;;;5138991;27;20101;-73
2022/11/13 13:38:31;;;;;;;5.38;2.88;;;;;;;;;;5125336;27;20051;-73
2022/11/13 13:41:05;;;;;;;5.60;2.97;;;;;;;;;;5137191;27;20055;-73
2022/11/13 13:43:32;;;;;;;7.00;3.45;;;;;;;;;;5130283;27;20056;-73
2022/11/13 13:46:05;;;;;;;6.50;2.90;;;;;;;;;;5134934;27;20680;-73
2022/11/13 13:48:39;;;;;;;5.03;2.92;;;;;;;;;;5140826;27;20705;-73
2022/11/13 13:51:16;;;;;;;11.10;3.10;;;;;;;;;;5130816;27;20055;-73
2022/11/13 13:53:43;;;;;;;6.93;3.20;;;;;;;;;;5142795;27;20058;-73
2022/11/13 13:56:13;;;;;;;8.25;2.97;;;;;;;;;;5132668;27;20047;-73
2022/11/13 13:58:41;;;;;;;6.65;2.95;;;;;;;;;;5138991;27;20043;-73
2022/11/13 14:01:13;;;;;;;5.05;2.67;;;;;;;;;;5137021;27;20527;-73
2022/11/13 14:03:46;;;;;;;5.13;2.67;;;;;;;;;;5133637;27;20055;-73
2022/11/13 14:06:16;;;;;;;8.23;3.08;;;;;;;;;;5139070;27;20077;-73
2022/11/13 14:08:44;;;;;;;4.97;2.47;;;;;;;;;;5126293;27;20082;-73
2022/11/13 14:11:19;;;;;;;8.60;2.80;;;;;;;;;;5135849;27;20057;-73
2022/11/13 14:13:49;;;;;;;6.68;3.10;;;;;;;;;;5113333;27;20051;-73
2022/11/13 14:16:20;;;;;;;5.72;2.88;;;;;;;;;;5126387;27;20047;-73
2022/11/13 14:18:51;;;;;;;4.72;2.45;;;;;;;;;;5130238;27;20109;-73
2022/11/13 14:21:20;;;;;;;5.80;3.03;;;;;;;;;;5133467;27;20086;-73
2022/11/13 14:23:52;;;;;;;6.43;2.95;;;;;;;;;;5139064;27;20076;-73
2022/11/13 14:26:20;;;;;;;6.75;2.88;;;;;;;;;;5136596;27;20047;-73
2022/11/13 14:28:48;;;;;;;9.20;2.70;;;;;;;;;;5140001;27;20512;-73
2022/11/13 14:31:24;;;;;;;4.55;2.47;;;;;;;;;;5138882;27;20048;-73
2022/11/13 14:33:55;;;;;;;6.15;3.10;;;;;;;;;;5140872;27;20057;-74
2022/11/13 14:36:28;;;;;;;5.20;3.08;;;;;;;;;;5125165;27;20081;-73
2022/11/13 14:38:57;;;;;;;7.20;3.20;;;;;;;;;;5137517;27;20047;-73
2022/11/13 14:41:29;;;;;;;6.30;3.42;;;;;;;;;;5127346;27;20044;-73
2022/11/13 14:43:56;;;;;;;6.13;2.90;;;;;;;;;;5133323;27;20047;-73
2022/11/13 14:46:26;;;;;;;5.07;2.63;;;;;;;;;;5140240;27;20051;-73
2022/11/13 14:48:55;;;;;;;9.95;3.47;;;;;;;;;;5131669;27;20046;-73